sensor_id;sensor_type;location;lat;lon;timestamp;P1;durP1;ratioP1;P2;durP2;ratioP2
74108;SDS011;62466;47.566;7.786;2022-12-29T00:01:35;6.22;;;4.40;;
74108;SDS011;62466;47.566;7.786;2022-12-29T00:04:01;6.30;;;5.03;;
74108;SDS011;62466;47.566;7.786;2022-12-29T00:06:27;7.55;;;5.07;;
74108;SDS011;62466;47.566;7.786;2022-12-29T00:08:52;4.57;;;4.13;;
74108;SDS011;62466;47.566;7.786;2022-12-29T00:11:19;4.60;;;4.20;;
74108;SDS011;62466;47.566;7.786;2022-12-29T00:13:46;6.07;;;4.07;;
74108;SDS011;62466;47.566;7.786;2022-12-29T00:16:31;4.55;;;4.15;;
74108;SDS011;62466;47.566;7.786;2022-12-29T00:18:57;5.55;;;4.15;;
74108;SDS011;62466;47.566;7.786;2022-12-29T00:21:23;4.65;;;4.10;;
74108;SDS011;62466;47.566;7.786;2022-12-29T00:24:26;5.78;;;4.70;;
74108;SDS011;62466;47.566;7.786;2022-12-29T00:26:56;4.80;;;4.05;;
74108;SDS011;62466;47.566;7.786;2022-12-29T00:29:42;4.70;;;3.97;;
74108;SDS011;62466;47.566;7.786;2022-12-29T00:32:26;4.70;;;3.65;;
74108;SDS011;62466;47.566;7.786;2022-12-29T00:35:11;4.28;;;3.88;;
74108;SDS011;62466;47.566;7.786;2022-12-29T00:37:40;4.20;;;3.80;;
74108;SDS011;62466;47.566;7.786;2022-12-29T00:40:26;8.13;;;4.50;;
74108;SDS011;62466;47.566;7.786;2022-12-29T00:43:10;5.30;;;4.82;;
74108;SDS011;62466;47.566;7.786;2022-12-29T00:45:54;5.22;;;4.68;;
74108;SDS011;62466;47.566;7.786;2022-12-29T00:48:20;4.65;;;4.03;;
74108;SDS011;62466;47.566;7.786;2022-12-29T00:51:05;6.38;;;4.68;;
74108;SDS011;62466;47.566;7.786;2022-12-29T00:53:32;4.43;;;4.10;;
74108;SDS011;62466;47.566;7.786;2022-12-29T00:55:57;4.55;;;4.15;;
74108;SDS011;62466;47.566;7.786;2022-12-29T00:58:23;4.68;;;4.25;;
74108;SDS011;62466;47.566;7.786;2022-12-29T01:00:48;7.18;;;4.40;;
74108;SDS011;62466;47.566;7.786;2022-12-29T01:03:14;4.40;;;3.72;;
74108;SDS011;62466;47.566;7.786;2022-12-29T01:05:39;4.75;;;4.32;;
74108;SDS011;62466;47.566;7.786;2022-12-29T01:08:05;5.13;;;3.90;;
74108;SDS011;62466;47.566;7.786;2022-12-29T01:10:30;5.65;;;3.90;;
74108;SDS011;62466;47.566;7.786;2022-12-29T01:12:56;4.40;;;4.00;;
74108;SDS011;62466;47.566;7.786;2022-12-29T01:15:21;4.25;;;3.85;;
74108;SDS011;62466;47.566;7.786;2022-12-29T01:17:47;5.53;;;4.35;;
74108;SDS011;62466;47.566;7.786;2022-12-29T01:20:13;5.53;;;4.53;;
74108;SDS011;62466;47.566;7.786;2022-12-29T01:22:38;5.82;;;4.40;;
74108;SDS011;62466;47.566;7.786;2022-12-29T01:25:04;5.82;;;4.50;;
74108;SDS011;62466;47.566;7.786;2022-12-29T01:27:31;4.53;;;4.13;;
74108;SDS011;62466;47.566;7.786;2022-12-29T01:29:56;5.15;;;4.53;;
74108;SDS011;62466;47.566;7.786;2022-12-29T01:32:22;4.57;;;4.25;;
74108;SDS011;62466;47.566;7.786;2022-12-29T01:34:47;6.40;;;4.28;;
74108;SDS011;62466;47.566;7.786;2022-12-29T01:37:13;8.50;;;4.65;;
74108;SDS011;62466;47.566;7.786;2022-12-29T01:39:38;5.13;;;4.00;;
74108;SDS011;62466;47.566;7.786;2022-12-29T01:42:04;4.40;;;4.00;;
74108;SDS011;62466;47.566;7.786;2022-12-29T01:44:47;4.53;;;3.63;;
74108;SDS011;62466;47.566;7.786;2022-12-29T01:49:53;4.50;;;4.10;;
74108;SDS011;62466;47.566;7.786;2022-12-29T01:52:19;4.28;;;3.88;;
74108;SDS011;62466;47.566;7.786;2022-12-29T01:54:49;5.25;;;3.88;;
74108;SDS011;62466;47.566;7.786;2022-12-29T01:57:18;5.43;;;3.70;;
74108;SDS011;62466;47.566;7.786;2022-12-29T01:59:46;4.00;;;3.58;;
74108;SDS011;62466;47.566;7.786;2022-12-29T02:02:15;5.15;;;4.20;;
74108;SDS011;62466;47.566;7.786;2022-12-29T02:04:41;4.78;;;4.00;;
74108;SDS011;62466;47.566;7.786;2022-12-29T02:07:15;5.47;;;3.90;;
74108;SDS011;62466;47.566;7.786;2022-12-29T02:09:46;5.32;;;4.03;;
74108;SDS011;62466;47.566;7.786;2022-12-29T02:12:16;4.53;;;4.13;;
74108;SDS011;62466;47.566;7.786;2022-12-29T02:14:42;11.18;;;5.80;;
74108;SDS011;62466;47.566;7.786;2022-12-29T02:22:30;4.50;;;4.20;;
74108;SDS011;62466;47.566;7.786;2022-12-29T02:27:58;6.45;;;3.92;;
74108;SDS011;62466;47.566;7.786;2022-12-29T02:33:46;4.38;;;3.97;;
74108;SDS011;62466;47.566;7.786;2022-12-29T02:39:30;5.78;;;4.45;;
74108;SDS011;62466;47.566;7.786;2022-12-29T02:42:21;4.57;;;4.18;;
74108;SDS011;62466;47.566;7.786;2022-12-29T02:50:19;5.20;;;4.55;;
74108;SDS011;62466;47.566;7.786;2022-12-29T02:52:56;5.47;;;4.57;;
74108;SDS011;62466;47.566;7.786;2022-12-29T02:55:23;6.57;;;4.90;;
74108;SDS011;62466;47.566;7.786;2022-12-29T02:57:49;6.95;;;4.57;;
74108;SDS011;62466;47.566;7.786;2022-12-29T03:00:34;4.95;;;4.45;;
74108;SDS011;62466;47.566;7.786;2022-12-29T03:08:48;4.22;;;3.80;;
74108;SDS011;62466;47.566;7.786;2022-12-29T03:11:17;4.10;;;3.65;;
74108;SDS011;62466;47.566;7.786;2022-12-29T03:14:08;4.38;;;3.97;;
74108;SDS011;62466;47.566;7.786;2022-12-29T03:17:09;5.70;;;4.20;;
74108;SDS011;62466;47.566;7.786;2022-12-29T03:19:39;6.10;;;4.07;;
74108;SDS011;62466;47.566;7.786;2022-12-29T03:22:09;4.68;;;4.20;;
74108;SDS011;62466;47.566;7.786;2022-12-29T03:25:04;5.85;;;4.78;;
74108;SDS011;62466;47.566;7.786;2022-12-29T03:27:36;4.03;;;3.63;;
74108;SDS011;62466;47.566;7.786;2022-12-29T03:30:06;4.97;;;4.05;;
74108;SDS011;62466;47.566;7.786;2022-12-29T03:32:41;4.90;;;4.35;;
74108;SDS011;62466;47.566;7.786;2022-12-29T03:35:11;4.68;;;3.95;;
74108;SDS011;62466;47.566;7.786;2022-12-29T03:37:40;7.60;;;4.75;;
74108;SDS011;62466;47.566;7.786;2022-12-29T03:40:08;5.45;;;4.22;;
74108;SDS011;62466;47.566;7.786;2022-12-29T03:42:35;4.45;;;4.07;;
74108;SDS011;62466;47.566;7.786;2022-12-29T03:45:01;3.78;;;3.42;;
74108;SDS011;62466;47.566;7.786;2022-12-29T03:47:27;4.63;;;3.83;;
74108;SDS011;62466;47.566;7.786;2022-12-29T03:49:52;5.78;;;4.10;;
74108;SDS011;62466;47.566;7.786;2022-12-29T03:52:18;3.90;;;3.55;;
74108;SDS011;62466;47.566;7.786;2022-12-29T03:54:45;4.30;;;3.90;;
74108;SDS011;62466;47.566;7.786;2022-12-29T03:57:11;5.35;;;3.90;;
74108;SDS011;62466;47.566;7.786;2022-12-29T03:59:57;4.30;;;3.83;;
74108;SDS011;62466;47.566;7.786;2022-12-29T04:02:23;7.57;;;5.10;;
74108;SDS011;62466;47.566;7.786;2022-12-29T04:04:49;7.30;;;4.57;;
74108;SDS011;62466;47.566;7.786;2022-12-29T04:07:14;5.40;;;4.63;;
74108;SDS011;62466;47.566;7.786;2022-12-29T04:09:41;6.53;;;4.50;;
74108;SDS011;62466;47.566;7.786;2022-12-29T04:12:09;4.47;;;4.07;;
74108;SDS011;62466;47.566;7.786;2022-12-29T04:14:35;4.95;;;4.15;;
74108;SDS011;62466;47.566;7.786;2022-12-29T04:17:01;5.03;;;4.57;;
74108;SDS011;62466;47.566;7.786;2022-12-29T04:19:27;6.25;;;4.35;;
74108;SDS011;62466;47.566;7.786;2022-12-29T04:21:53;5.22;;;4.10;;
74108;SDS011;62466;47.566;7.786;2022-12-29T04:24:19;6.75;;;5.07;;
74108;SDS011;62466;47.566;7.786;2022-12-29T04:26:47;5.20;;;4.70;;
74108;SDS011;62466;47.566;7.786;2022-12-29T04:29:25;5.32;;;4.55;;
74108;SDS011;62466;47.566;7.786;2022-12-29T04:32:03;4.25;;;3.85;;
74108;SDS011;62466;47.566;7.786;2022-12-29T04:34:31;6.00;;;4.47;;
74108;SDS011;62466;47.566;7.786;2022-12-29T04:36:57;4.47;;;4.00;;
74108;SDS011;62466;47.566;7.786;2022-12-29T04:39:22;4.50;;;4.10;;
74108;SDS011;62466;47.566;7.786;2022-12-29T04:41:48;4.40;;;4.03;;
74108;SDS011;62466;47.566;7.786;2022-12-29T04:44:17;5.10;;;4.47;;
74108;SDS011;62466;47.566;7.786;2022-12-29T04:47:21;4.65;;;4.10;;
74108;SDS011;62466;47.566;7.786;2022-12-29T04:50:07;5.15;;;4.20;;
74108;SDS011;62466;47.566;7.786;2022-12-29T04:52:42;7.72;;;4.63;;
74108;SDS011;62466;47.566;7.786;2022-12-29T04:55:09;3.95;;;3.65;;
74108;SDS011;62466;47.566;7.786;2022-12-29T04:57:35;5.13;;;4.25;;
74108;SDS011;62466;47.566;7.786;2022-12-29T05:00:00;4.10;;;3.80;;
74108;SDS011;62466;47.566;7.786;2022-12-29T05:02:26;4.97;;;4.32;;
74108;SDS011;62466;47.566;7.786;2022-12-29T05:04:54;4.55;;;4.15;;
74108;SDS011;62466;47.566;7.786;2022-12-29T05:07:19;4.68;;;4.18;;
74108;SDS011;62466;47.566;7.786;2022-12-29T05:09:46;4.40;;;4.00;;
74108;SDS011;62466;47.566;7.786;2022-12-29T05:12:12;6.35;;;4.22;;
74108;SDS011;62466;47.566;7.786;2022-12-29T05:14:46;4.47;;;3.30;;
74108;SDS011;62466;47.566;7.786;2022-12-29T05:17:11;4.72;;;4.07;;
74108;SDS011;62466;47.566;7.786;2022-12-29T05:19:37;6.30;;;4.30;;
74108;SDS011;62466;47.566;7.786;2022-12-29T05:22:03;5.00;;;4.20;;
74108;SDS011;62466;47.566;7.786;2022-12-29T05:24:29;5.25;;;4.03;;
74108;SDS011;62466;47.566;7.786;2022-12-29T05:26:56;4.80;;;3.75;;
74108;SDS011;62466;47.566;7.786;2022-12-29T05:29:43;6.65;;;4.45;;
74108;SDS011;62466;47.566;7.786;2022-12-29T05:32:08;9.13;;;4.25;;
74108;SDS011;62466;47.566;7.786;2022-12-29T05:34:34;6.32;;;4.70;;
74108;SDS011;62466;47.566;7.786;2022-12-29T05:36:59;4.78;;;4.32;;
74108;SDS011;62466;47.566;7.786;2022-12-29T05:39:26;4.32;;;3.90;;
74108;SDS011;62466;47.566;7.786;2022-12-29T05:41:56;4.30;;;3.58;;
74108;SDS011;62466;47.566;7.786;2022-12-29T05:44:48;6.38;;;3.97;;
74108;SDS011;62466;47.566;7.786;2022-12-29T05:47:23;4.03;;;3.65;;
74108;SDS011;62466;47.566;7.786;2022-12-29T05:50:06;5.55;;;3.85;;
74108;SDS011;62466;47.566;7.786;2022-12-29T05:52:52;6.22;;;4.30;;
74108;SDS011;62466;47.566;7.786;2022-12-29T05:55:18;4.18;;;3.50;;
74108;SDS011;62466;47.566;7.786;2022-12-29T05:57:46;4.15;;;3.33;;
74108;SDS011;62466;47.566;7.786;2022-12-29T06:00:14;4.20;;;3.60;;
74108;SDS011;62466;47.566;7.786;2022-12-29T06:02:39;3.90;;;3.60;;
74108;SDS011;62466;47.566;7.786;2022-12-29T06:05:06;7.50;;;3.55;;
74108;SDS011;62466;47.566;7.786;2022-12-29T06:07:33;3.80;;;3.50;;
74108;SDS011;62466;47.566;7.786;2022-12-29T06:09:58;4.60;;;3.80;;
74108;SDS011;62466;47.566;7.786;2022-12-29T06:12:24;4.40;;;3.45;;
74108;SDS011;62466;47.566;7.786;2022-12-29T06:14:52;4.13;;;3.53;;
74108;SDS011;62466;47.566;7.786;2022-12-29T06:17:17;3.60;;;3.30;;
74108;SDS011;62466;47.566;7.786;2022-12-29T06:19:43;3.35;;;3.03;;
74108;SDS011;62466;47.566;7.786;2022-12-29T06:22:09;4.90;;;3.38;;
74108;SDS011;62466;47.566;7.786;2022-12-29T06:24:38;3.92;;;3.05;;
74108;SDS011;62466;47.566;7.786;2022-12-29T06:27:04;3.97;;;3.28;;
74108;SDS011;62466;47.566;7.786;2022-12-29T06:29:30;3.45;;;3.15;;
74108;SDS011;62466;47.566;7.786;2022-12-29T06:31:56;9.25;;;3.25;;
74108;SDS011;62466;47.566;7.786;2022-12-29T06:34:23;5.07;;;3.30;;
74108;SDS011;62466;47.566;7.786;2022-12-29T06:36:49;3.97;;;3.58;;
74108;SDS011;62466;47.566;7.786;2022-12-29T06:39:15;3.75;;;3.45;;
74108;SDS011;62466;47.566;7.786;2022-12-29T06:41:47;3.72;;;3.13;;
74108;SDS011;62466;47.566;7.786;2022-12-29T06:44:39;3.17;;;2.88;;
74108;SDS011;62466;47.566;7.786;2022-12-29T06:47:08;4.78;;;3.28;;
74108;SDS011;62466;47.566;7.786;2022-12-29T06:49:34;4.10;;;3.58;;
74108;SDS011;62466;47.566;7.786;2022-12-29T06:51:59;3.72;;;3.20;;
74108;SDS011;62466;47.566;7.786;2022-12-29T06:54:25;5.07;;;3.45;;
74108;SDS011;62466;47.566;7.786;2022-12-29T06:56:51;4.85;;;3.63;;
74108;SDS011;62466;47.566;7.786;2022-12-29T06:59:17;6.82;;;4.10;;
74108;SDS011;62466;47.566;7.786;2022-12-29T07:01:42;8.07;;;3.80;;
74108;SDS011;62466;47.566;7.786;2022-12-29T07:04:07;7.55;;;3.70;;
74108;SDS011;62466;47.566;7.786;2022-12-29T07:06:33;3.42;;;3.22;;
74108;SDS011;62466;47.566;7.786;2022-12-29T07:08:58;4.80;;;3.85;;
74108;SDS011;62466;47.566;7.786;2022-12-29T07:11:24;4.55;;;3.67;;
74108;SDS011;62466;47.566;7.786;2022-12-29T07:13:49;5.47;;;3.80;;
74108;SDS011;62466;47.566;7.786;2022-12-29T07:16:15;4.75;;;3.65;;
74108;SDS011;62466;47.566;7.786;2022-12-29T07:18:40;4.07;;;3.17;;
74108;SDS011;62466;47.566;7.786;2022-12-29T07:21:06;7.68;;;3.38;;
74108;SDS011;62466;47.566;7.786;2022-12-29T07:23:32;3.95;;;3.58;;
74108;SDS011;62466;47.566;7.786;2022-12-29T07:26:07;5.10;;;3.47;;
74108;SDS011;62466;47.566;7.786;2022-12-29T07:28:34;4.22;;;3.83;;
74108;SDS011;62466;47.566;7.786;2022-12-29T07:31:00;5.70;;;4.03;;
74108;SDS011;62466;47.566;7.786;2022-12-29T07:33:28;6.13;;;4.95;;
74108;SDS011;62466;47.566;7.786;2022-12-29T07:35:54;7.35;;;4.65;;
74108;SDS011;62466;47.566;7.786;2022-12-29T07:38:19;5.32;;;4.45;;
74108;SDS011;62466;47.566;7.786;2022-12-29T07:40:44;4.25;;;3.35;;
74108;SDS011;62466;47.566;7.786;2022-12-29T07:43:10;2.72;;;2.53;;
74108;SDS011;62466;47.566;7.786;2022-12-29T07:48:07;2.72;;;2.30;;
74108;SDS011;62466;47.566;7.786;2022-12-29T07:50:36;3.25;;;2.50;;
74108;SDS011;62466;47.566;7.786;2022-12-29T07:53:02;5.78;;;2.38;;
74108;SDS011;62466;47.566;7.786;2022-12-29T07:55:27;2.17;;;1.98;;
74108;SDS011;62466;47.566;7.786;2022-12-29T07:57:54;3.53;;;2.08;;
74108;SDS011;62466;47.566;7.786;2022-12-29T08:00:20;1.85;;;1.75;;
74108;SDS011;62466;47.566;7.786;2022-12-29T08:02:45;1.67;;;1.58;;
74108;SDS011;62466;47.566;7.786;2022-12-29T08:05:11;2.65;;;1.77;;
74108;SDS011;62466;47.566;7.786;2022-12-29T08:07:36;2.10;;;1.90;;
74108;SDS011;62466;47.566;7.786;2022-12-29T08:10:02;2.67;;;2.38;;
74108;SDS011;62466;47.566;7.786;2022-12-29T08:12:28;4.43;;;2.63;;
74108;SDS011;62466;47.566;7.786;2022-12-29T08:14:53;3.72;;;1.95;;
74108;SDS011;62466;47.566;7.786;2022-12-29T08:17:19;3.28;;;2.08;;
74108;SDS011;62466;47.566;7.786;2022-12-29T08:19:44;2.80;;;2.22;;
74108;SDS011;62466;47.566;7.786;2022-12-29T08:22:10;2.10;;;1.90;;
74108;SDS011;62466;47.566;7.786;2022-12-29T08:24:35;4.88;;;2.47;;
74108;SDS011;62466;47.566;7.786;2022-12-29T08:27:01;1.80;;;1.70;;
74108;SDS011;62466;47.566;7.786;2022-12-29T08:29:27;2.70;;;2.00;;
74108;SDS011;62466;47.566;7.786;2022-12-29T08:31:52;2.20;;;2.03;;
74108;SDS011;62466;47.566;7.786;2022-12-29T08:34:17;2.30;;;2.10;;
74108;SDS011;62466;47.566;7.786;2022-12-29T08:36:46;3.17;;;2.05;;
74108;SDS011;62466;47.566;7.786;2022-12-29T08:39:14;2.33;;;1.90;;
74108;SDS011;62466;47.566;7.786;2022-12-29T08:41:39;1.60;;;1.50;;
74108;SDS011;62466;47.566;7.786;2022-12-29T08:44:05;3.80;;;1.63;;
74108;SDS011;62466;47.566;7.786;2022-12-29T08:46:31;2.72;;;1.83;;
74108;SDS011;62466;47.566;7.786;2022-12-29T08:48:57;1.63;;;1.52;;
74108;SDS011;62466;47.566;7.786;2022-12-29T08:51:22;2.95;;;1.90;;
74108;SDS011;62466;47.566;7.786;2022-12-29T08:53:48;2.35;;;1.38;;
74108;SDS011;62466;47.566;7.786;2022-12-29T08:56:13;1.48;;;1.35;;
74108;SDS011;62466;47.566;7.786;2022-12-29T08:58:45;2.33;;;1.40;;
74108;SDS011;62466;47.566;7.786;2022-12-29T09:01:11;3.03;;;1.85;;
74108;SDS011;62466;47.566;7.786;2022-12-29T09:03:36;3.25;;;1.30;;
74108;SDS011;62466;47.566;7.786;2022-12-29T09:06:02;1.33;;;1.30;;
74108;SDS011;62466;47.566;7.786;2022-12-29T09:08:27;3.15;;;1.75;;
74108;SDS011;62466;47.566;7.786;2022-12-29T09:10:53;1.55;;;1.38;;
74108;SDS011;62466;47.566;7.786;2022-12-29T09:13:18;1.70;;;1.50;;
74108;SDS011;62466;47.566;7.786;2022-12-29T09:15:44;2.25;;;1.50;;
74108;SDS011;62466;47.566;7.786;2022-12-29T09:18:09;2.28;;;1.42;;
74108;SDS011;62466;47.566;7.786;2022-12-29T09:20:36;1.55;;;1.45;;
74108;SDS011;62466;47.566;7.786;2022-12-29T09:23:02;6.95;;;1.63;;
74108;SDS011;62466;47.566;7.786;2022-12-29T09:25:28;2.75;;;1.38;;
74108;SDS011;62466;47.566;7.786;2022-12-29T09:27:53;3.67;;;1.27;;
74108;SDS011;62466;47.566;7.786;2022-12-29T09:30:20;1.60;;;1.40;;
74108;SDS011;62466;47.566;7.786;2022-12-29T09:32:46;3.80;;;1.30;;
74108;SDS011;62466;47.566;7.786;2022-12-29T09:35:16;3.10;;;1.50;;
74108;SDS011;62466;47.566;7.786;2022-12-29T09:37:41;4.05;;;1.60;;
74108;SDS011;62466;47.566;7.786;2022-12-29T09:40:09;1.60;;;1.42;;
74108;SDS011;62466;47.566;7.786;2022-12-29T09:45:45;1.98;;;1.77;;
74108;SDS011;62466;47.566;7.786;2022-12-29T09:48:16;3.67;;;1.30;;
74108;SDS011;62466;47.566;7.786;2022-12-29T09:50:49;1.92;;;1.58;;
74108;SDS011;62466;47.566;7.786;2022-12-29T09:55:50;1.75;;;1.40;;
74108;SDS011;62466;47.566;7.786;2022-12-29T09:58:24;2.50;;;1.38;;
74108;SDS011;62466;47.566;7.786;2022-12-29T10:01:04;2.22;;;1.58;;
74108;SDS011;62466;47.566;7.786;2022-12-29T10:03:47;2.00;;;1.30;;
74108;SDS011;62466;47.566;7.786;2022-12-29T10:12:12;2.63;;;1.42;;
74108;SDS011;62466;47.566;7.786;2022-12-29T10:14:52;1.95;;;1.75;;
74108;SDS011;62466;47.566;7.786;2022-12-29T10:20:31;1.85;;;1.50;;
74108;SDS011;62466;47.566;7.786;2022-12-29T10:23:04;1.40;;;1.30;;
74108;SDS011;62466;47.566;7.786;2022-12-29T10:25:37;2.30;;;1.33;;
74108;SDS011;62466;47.566;7.786;2022-12-29T10:28:11;2.55;;;1.40;;
74108;SDS011;62466;47.566;7.786;2022-12-29T10:30:42;1.30;;;1.20;;
74108;SDS011;62466;47.566;7.786;2022-12-29T10:33:10;1.63;;;1.20;;
74108;SDS011;62466;47.566;7.786;2022-12-29T10:35:46;1.60;;;1.50;;
74108;SDS011;62466;47.566;7.786;2022-12-29T10:38:26;1.40;;;1.30;;
74108;SDS011;62466;47.566;7.786;2022-12-29T10:43:27;2.05;;;1.10;;
74108;SDS011;62466;47.566;7.786;2022-12-29T10:46:04;1.60;;;0.95;;
74108;SDS011;62466;47.566;7.786;2022-12-29T10:48:33;1.10;;;1.00;;
74108;SDS011;62466;47.566;7.786;2022-12-29T10:51:01;2.03;;;1.30;;
74108;SDS011;62466;47.566;7.786;2022-12-29T10:53:31;1.10;;;1.10;;
74108;SDS011;62466;47.566;7.786;2022-12-29T10:56:04;2.10;;;1.20;;
74108;SDS011;62466;47.566;7.786;2022-12-29T10:58:39;1.70;;;1.00;;
74108;SDS011;62466;47.566;7.786;2022-12-29T11:01:07;2.25;;;1.00;;
74108;SDS011;62466;47.566;7.786;2022-12-29T11:06:24;2.67;;;1.10;;
74108;SDS011;62466;47.566;7.786;2022-12-29T11:08:56;0.90;;;0.90;;
74108;SDS011;62466;47.566;7.786;2022-12-29T11:11:24;1.33;;;1.20;;
74108;SDS011;62466;47.566;7.786;2022-12-29T11:13:56;1.08;;;0.98;;
74108;SDS011;62466;47.566;7.786;2022-12-29T11:16:42;1.38;;;1.27;;
74108;SDS011;62466;47.566;7.786;2022-12-29T11:19:22;1.60;;;1.33;;
74108;SDS011;62466;47.566;7.786;2022-12-29T11:21:49;1.10;;;1.00;;
74108;SDS011;62466;47.566;7.786;2022-12-29T11:24:22;1.55;;;1.00;;
74108;SDS011;62466;47.566;7.786;2022-12-29T11:26:55;1.20;;;1.17;;
74108;SDS011;62466;47.566;7.786;2022-12-29T11:29:37;0.95;;;0.95;;
74108;SDS011;62466;47.566;7.786;2022-12-29T11:32:38;1.10;;;1.10;;
74108;SDS011;62466;47.566;7.786;2022-12-29T11:34:56;3.30;;;1.02;;
74108;SDS011;62466;47.566;7.786;2022-12-29T11:40:15;1.85;;;1.50;;
74108;SDS011;62466;47.566;7.786;2022-12-29T11:42:47;1.15;;;1.15;;
74108;SDS011;62466;47.566;7.786;2022-12-29T11:45:17;1.20;;;1.20;;
74108;SDS011;62466;47.566;7.786;2022-12-29T11:47:44;1.23;;;1.13;;
74108;SDS011;62466;47.566;7.786;2022-12-29T11:50:22;2.50;;;1.00;;
74108;SDS011;62466;47.566;7.786;2022-12-29T11:52:59;0.98;;;0.98;;
74108;SDS011;62466;47.566;7.786;2022-12-29T11:55:27;1.02;;;0.93;;
74108;SDS011;62466;47.566;7.786;2022-12-29T11:57:53;5.28;;;2.40;;
74108;SDS011;62466;47.566;7.786;2022-12-29T12:00:21;2.67;;;1.42;;
74108;SDS011;62466;47.566;7.786;2022-12-29T12:03:01;2.65;;;1.38;;
74108;SDS011;62466;47.566;7.786;2022-12-29T12:05:31;1.10;;;1.00;;
74108;SDS011;62466;47.566;7.786;2022-12-29T12:10:42;2.22;;;0.90;;
74108;SDS011;62466;47.566;7.786;2022-12-29T12:13:20;2.92;;;1.02;;
74108;SDS011;62466;47.566;7.786;2022-12-29T12:16:08;1.95;;;0.90;;
74108;SDS011;62466;47.566;7.786;2022-12-29T12:18:48;3.40;;;1.20;;
74108;SDS011;62466;47.566;7.786;2022-12-29T12:21:25;1.10;;;1.10;;
74108;SDS011;62466;47.566;7.786;2022-12-29T12:27:01;0.90;;;0.90;;
74108;SDS011;62466;47.566;7.786;2022-12-29T12:29:38;0.88;;;0.80;;
74108;SDS011;62466;47.566;7.786;2022-12-29T12:32:14;1.60;;;1.15;;
74108;SDS011;62466;47.566;7.786;2022-12-29T12:34:44;1.08;;;0.98;;
74108;SDS011;62466;47.566;7.786;2022-12-29T12:37:15;1.42;;;1.00;;
74108;SDS011;62466;47.566;7.786;2022-12-29T12:45:47;1.65;;;1.05;;
74108;SDS011;62466;47.566;7.786;2022-12-29T12:59:49;1.60;;;1.50;;
74108;SDS011;62466;47.566;7.786;2022-12-29T13:05:00;1.67;;;1.58;;
74108;SDS011;62466;47.566;7.786;2022-12-29T13:18:34;1.45;;;1.13;;
74108;SDS011;62466;47.566;7.786;2022-12-29T13:26:28;1.83;;;1.20;;
74108;SDS011;62466;47.566;7.786;2022-12-29T13:29:06;1.00;;;1.00;;
74108;SDS011;62466;47.566;7.786;2022-12-29T13:37:52;2.63;;;1.08;;
74108;SDS011;62466;47.566;7.786;2022-12-29T13:40:23;2.58;;;1.00;;
74108;SDS011;62466;47.566;7.786;2022-12-29T13:42:50;1.00;;;0.93;;
74108;SDS011;62466;47.566;7.786;2022-12-29T13:45:21;1.65;;;1.13;;
74108;SDS011;62466;47.566;7.786;2022-12-29T13:47:50;0.90;;;0.90;;
74108;SDS011;62466;47.566;7.786;2022-12-29T13:50:19;1.38;;;1.20;;
74108;SDS011;62466;47.566;7.786;2022-12-29T13:58:11;1.15;;;1.05;;
74108;SDS011;62466;47.566;7.786;2022-12-29T14:03:51;1.38;;;1.00;;
74108;SDS011;62466;47.566;7.786;2022-12-29T14:06:28;1.35;;;1.15;;
74108;SDS011;62466;47.566;7.786;2022-12-29T14:08:58;1.60;;;1.30;;
74108;SDS011;62466;47.566;7.786;2022-12-29T14:11:35;1.73;;;1.02;;
74108;SDS011;62466;47.566;7.786;2022-12-29T14:14:18;1.50;;;1.15;;
74108;SDS011;62466;47.566;7.786;2022-12-29T14:16:49;1.60;;;1.48;;
74108;SDS011;62466;47.566;7.786;2022-12-29T14:19:38;2.58;;;1.23;;
74108;SDS011;62466;47.566;7.786;2022-12-29T14:22:06;1.05;;;1.05;;
74108;SDS011;62466;47.566;7.786;2022-12-29T14:34:46;1.25;;;1.17;;
74108;SDS011;62466;47.566;7.786;2022-12-29T14:37:28;1.45;;;1.23;;
74108;SDS011;62466;47.566;7.786;2022-12-29T14:42:39;1.40;;;1.30;;
74108;SDS011;62466;47.566;7.786;2022-12-29T14:45:08;2.70;;;1.77;;
74108;SDS011;62466;47.566;7.786;2022-12-29T14:47:51;2.65;;;2.38;;
74108;SDS011;62466;47.566;7.786;2022-12-29T14:57:41;3.22;;;1.95;;
74108;SDS011;62466;47.566;7.786;2022-12-29T15:02:40;1.45;;;1.35;;
74108;SDS011;62466;47.566;7.786;2022-12-29T15:05:19;3.40;;;1.65;;
74108;SDS011;62466;47.566;7.786;2022-12-29T15:07:50;1.85;;;1.75;;
74108;SDS011;62466;47.566;7.786;2022-12-29T15:10:15;2.25;;;1.73;;
74108;SDS011;62466;47.566;7.786;2022-12-29T15:12:47;1.60;;;1.50;;
74108;SDS011;62466;47.566;7.786;2022-12-29T15:17:42;2.00;;;1.80;;
74108;SDS011;62466;47.566;7.786;2022-12-29T15:20:41;2.47;;;1.60;;
74108;SDS011;62466;47.566;7.786;2022-12-29T15:23:08;1.80;;;1.70;;
74108;SDS011;62466;47.566;7.786;2022-12-29T15:25:35;1.98;;;1.88;;
74108;SDS011;62466;47.566;7.786;2022-12-29T15:28:02;2.10;;;1.55;;
74108;SDS011;62466;47.566;7.786;2022-12-29T15:30:29;1.98;;;1.80;;
74108;SDS011;62466;47.566;7.786;2022-12-29T15:32:55;6.20;;;4.00;;
74108;SDS011;62466;47.566;7.786;2022-12-29T15:37:59;8.40;;;3.92;;
74108;SDS011;62466;47.566;7.786;2022-12-29T15:40:31;4.18;;;3.47;;
74108;SDS011;62466;47.566;7.786;2022-12-29T15:45:55;3.15;;;2.20;;
74108;SDS011;62466;47.566;7.786;2022-12-29T15:48:22;3.50;;;2.20;;
74108;SDS011;62466;47.566;7.786;2022-12-29T15:50:48;2.63;;;2.20;;
74108;SDS011;62466;47.566;7.786;2022-12-29T15:53:31;2.40;;;2.20;;
74108;SDS011;62466;47.566;7.786;2022-12-29T15:56:01;2.30;;;2.08;;
74108;SDS011;62466;47.566;7.786;2022-12-29T15:58:31;4.53;;;2.22;;
74108;SDS011;62466;47.566;7.786;2022-12-29T16:01:16;2.85;;;2.55;;
74108;SDS011;62466;47.566;7.786;2022-12-29T16:03:54;3.08;;;2.13;;
74108;SDS011;62466;47.566;7.786;2022-12-29T16:06:27;3.03;;;2.17;;
74108;SDS011;62466;47.566;7.786;2022-12-29T16:09:07;2.38;;;2.17;;
74108;SDS011;62466;47.566;7.786;2022-12-29T16:14:16;2.20;;;2.00;;
74108;SDS011;62466;47.566;7.786;2022-12-29T16:16:43;2.60;;;1.80;;
74108;SDS011;62466;47.566;7.786;2022-12-29T16:19:12;4.90;;;2.80;;
74108;SDS011;62466;47.566;7.786;2022-12-29T16:21:41;2.88;;;2.13;;
74108;SDS011;62466;47.566;7.786;2022-12-29T16:24:08;3.70;;;2.03;;
74108;SDS011;62466;47.566;7.786;2022-12-29T16:26:38;2.35;;;2.15;;
74108;SDS011;62466;47.566;7.786;2022-12-29T16:29:05;6.22;;;2.03;;
74108;SDS011;62466;47.566;7.786;2022-12-29T16:33:57;3.78;;;2.10;;
74108;SDS011;62466;47.566;7.786;2022-12-29T16:38:51;2.00;;;1.90;;
74108;SDS011;62466;47.566;7.786;2022-12-29T16:41:29;2.72;;;2.45;;
74108;SDS011;62466;47.566;7.786;2022-12-29T16:46:58;4.03;;;1.90;;
74108;SDS011;62466;47.566;7.786;2022-12-29T16:49:27;2.33;;;1.30;;
74108;SDS011;62466;47.566;7.786;2022-12-29T16:51:53;1.80;;;1.52;;
74108;SDS011;62466;47.566;7.786;2022-12-29T16:54:24;1.70;;;1.60;;
74108;SDS011;62466;47.566;7.786;2022-12-29T16:56:57;1.70;;;1.60;;
74108;SDS011;62466;47.566;7.786;2022-12-29T17:01:59;1.45;;;1.40;;
74108;SDS011;62466;47.566;7.786;2022-12-29T17:04:26;2.00;;;1.80;;
74108;SDS011;62466;47.566;7.786;2022-12-29T17:06:54;1.52;;;1.40;;
74108;SDS011;62466;47.566;7.786;2022-12-29T17:09:20;2.92;;;1.35;;
74108;SDS011;62466;47.566;7.786;2022-12-29T17:11:48;2.75;;;1.98;;
74108;SDS011;62466;47.566;7.786;2022-12-29T17:14:31;5.97;;;4.45;;
74108;SDS011;62466;47.566;7.786;2022-12-29T17:17:51;3.38;;;3.00;;
74108;SDS011;62466;47.566;7.786;2022-12-29T17:20:18;6.28;;;3.70;;
74108;SDS011;62466;47.566;7.786;2022-12-29T17:22:45;5.60;;;3.60;;
74108;SDS011;62466;47.566;7.786;2022-12-29T17:25:11;3.92;;;2.90;;
74108;SDS011;62466;47.566;7.786;2022-12-29T17:27:42;4.68;;;2.70;;
74108;SDS011;62466;47.566;7.786;2022-12-29T17:30:13;4.88;;;2.72;;
74108;SDS011;62466;47.566;7.786;2022-12-29T17:32:40;1.85;;;1.75;;
74108;SDS011;62466;47.566;7.786;2022-12-29T17:35:12;1.98;;;1.65;;
74108;SDS011;62466;47.566;7.786;2022-12-29T17:37:41;1.80;;;1.70;;
74108;SDS011;62466;47.566;7.786;2022-12-29T17:40:09;2.25;;;2.05;;
74108;SDS011;62466;47.566;7.786;2022-12-29T17:42:40;2.75;;;2.30;;